Time;durP1;ratioP1;P1;durP2;ratioP2;P2;SDS_P1;SDS_P2;PMS_P1;PMS_P2;Temp;Humidity;BMP_temperature;BMP_pressure;BME280_temperature;BME280_humidity;BME280_pressure;Samples;Min_cycle;Max_cycle;Signal;HPM_P1;HPM_P2
2023/03/16 00:00:44;;;;;;;33.10;16.90;;;-0.10;99.90;;;;;;2086960;28;20036;-73
2023/03/16 00:01:45;;;;;;;33.05;17.00;;;-0.10;99.90;;;;;;2084527;28;20060;-73
2023/03/16 00:02:45;;;;;;;34.28;17.67;;;0.00;99.90;;;;;;2091064;28;20309;-74
2023/03/16 00:03:46;;;;;;;33.35;16.92;;;-0.10;99.90;;;;;;2086001;28;20123;-73
2023/03/16 00:04:46;;;;;;;34.58;17.98;;;-0.10;99.90;;;;;;2088973;28;20578;-74
2023/03/16 00:05:48;;;;;;;35.25;17.60;;;-0.10;99.90;;;;;;2090683;28;20471;-75
2023/03/16 00:06:49;;;;;;;34.28;17.80;;;-0.10;99.90;;;;;;2086322;28;20079;-75
2023/03/16 00:07:49;;;;;;;34.63;17.63;;;-0.10;99.90;;;;;;2086837;28;20029;-74
2023/03/16 00:08:50;;;;;;;33.53;17.30;;;-0.10;99.90;;;;;;2084515;28;20215;-74
2023/03/16 00:09:51;;;;;;;37.75;17.70;;;-0.10;99.90;;;;;;2085743;28;20040;-74
2023/03/16 00:10:53;;;;;;;36.75;18.40;;;-0.10;99.90;;;;;;2087581;28;20020;-75
2023/03/16 00:11:53;;;;;;;36.15;17.85;;;-0.10;99.90;;;;;;2087146;28;20031;-75
2023/03/16 00:12:55;;;;;;;35.20;17.63;;;-0.10;99.90;;;;;;2088462;28;20037;-75
2023/03/16 00:13:57;;;;;;;35.38;17.92;;;-0.10;99.90;;;;;;2090784;28;20111;-74
2023/03/16 00:14:58;;;;;;;33.75;17.95;;;-0.10;99.90;;;;;;2093837;28;20021;-74
2023/03/16 00:16:03;;;;;;;34.67;17.58;;;-0.10;99.90;;;;;;2091427;28;20052;-75
2023/03/16 00:17:05;;;;;;;36.78;17.95;;;-0.10;99.90;;;;;;2085491;28;20039;-74
2023/03/16 00:18:05;;;;;;;33.83;17.48;;;-0.10;99.90;;;;;;2090594;28;20083;-74
2023/03/16 00:19:06;;;;;;;30.63;17.35;;;-0.10;99.90;;;;;;2090987;28;20071;-74
2023/03/16 00:20:07;;;;;;;35.80;17.17;;;-0.20;99.90;;;;;;2088842;28;20036;-73
2023/03/16 00:21:09;;;;;;;30.75;16.90;;;-0.20;99.90;;;;;;2090637;28;20028;-74
2023/03/16 00:22:13;;;;;;;29.40;16.77;;;-0.20;99.90;;;;;;2090219;28;20067;-74
2023/03/16 00:23:14;;;;;;;31.48;16.52;;;-0.20;99.90;;;;;;2080717;28;20124;-74
2023/03/16 00:24:16;;;;;;;30.98;16.45;;;-0.20;99.90;;;;;;2092461;28;20545;-73
2023/03/16 00:25:17;;;;;;;31.02;16.30;;;-0.20;99.90;;;;;;2086156;28;20039;-74
2023/03/16 00:26:19;;;;;;;30.25;16.05;;;-0.20;99.90;;;;;;2087357;28;20081;-74
2023/03/16 00:27:21;;;;;;;31.45;17.02;;;-0.20;99.90;;;;;;2080918;28;20032;-75
2023/03/16 00:28:22;;;;;;;29.65;15.65;;;-0.20;99.90;;;;;;2076533;28;20091;-76
2023/03/16 00:29:22;;;;;;;32.72;16.75;;;-0.20;99.90;;;;;;2077644;28;20323;-73
2023/03/16 00:30:23;;;;;;;31.45;16.23;;;-0.20;99.90;;;;;;2078287;28;20200;-73
2023/03/16 00:31:24;;;;;;;29.08;16.42;;;-0.20;99.90;;;;;;2069395;28;20089;-73
2023/03/16 00:32:28;;;;;;;33.47;16.70;;;-0.20;99.90;;;;;;2075996;28;20036;-73
2023/03/16 00:33:28;;;;;;;30.98;16.00;;;-0.20;99.90;;;;;;2083725;28;20580;-73
2023/03/16 00:34:33;;;;;;;29.35;16.25;;;-0.20;99.90;;;;;;2090265;28;20082;-73
2023/03/16 00:35:34;;;;;;;30.63;15.85;;;-0.20;99.90;;;;;;2090796;28;20490;-73
2023/03/16 00:36:37;;;;;;;26.33;15.70;;;-0.20;99.90;;;;;;2090156;28;20081;-74
2023/03/16 00:37:38;;;;;;;27.90;15.65;;;-0.30;99.90;;;;;;2080429;28;20255;-73
2023/03/16 00:38:44;;;;;;;27.15;15.38;;;-0.30;99.90;;;;;;2075653;28;20461;-74
2023/03/16 00:39:45;;;;;;;27.40;15.38;;;-0.30;99.90;;;;;;2084806;28;20032;-74
2023/03/16 00:40:50;;;;;;;28.55;15.30;;;-0.30;99.90;;;;;;2090622;28;20265;-74
2023/03/16 00:41:50;;;;;;;26.23;14.77;;;-0.30;99.90;;;;;;2078722;28;20029;-74
2023/03/16 00:42:51;;;;;;;26.48;15.30;;;-0.30;99.90;;;;;;2072504;28;20026;-74
2023/03/16 00:43:52;;;;;;;28.63;14.93;;;-0.30;99.90;;;;;;2082220;28;20106;-74
2023/03/16 00:44:56;;;;;;;25.92;14.80;;;-0.30;99.90;;;;;;2092601;28;20028;-74
2023/03/16 00:46:00;;;;;;;28.27;14.90;;;-0.30;99.90;;;;;;2074670;28;20152;-74
2023/03/16 00:47:02;;;;;;;28.75;14.77;;;-0.30;99.90;;;;;;2073166;28;20148;-75
2023/03/16 00:48:03;;;;;;;27.38;15.00;;;-0.30;99.90;;;;;;2090173;28;20143;-74
2023/03/16 00:49:03;;;;;;;25.85;14.00;;;-0.30;99.90;;;;;;2090050;28;20082;-75
2023/03/16 00:50:04;;;;;;;27.40;15.00;;;-0.30;99.90;;;;;;2082152;28;20036;-74
2023/03/16 00:51:07;;;;;;;30.38;15.32;;;-0.30;99.90;;;;;;2084122;28;20048;-74
2023/03/16 00:52:13;;;;;;;28.58;14.55;;;-0.30;99.90;;;;;;2091385;28;20422;-73
2023/03/16 00:53:14;;;;;;;26.17;14.25;;;-0.40;99.90;;;;;;2081675;28;20025;-74
2023/03/16 00:54:16;;;;;;;29.10;15.10;;;-0.40;99.90;;;;;;2088778;28;20704;-73
2023/03/16 00:55:17;;;;;;;26.95;14.02;;;-0.40;99.90;;;;;;2090090;28;20028;-73
2023/03/16 00:56:18;;;;;;;26.25;14.05;;;-0.40;99.90;;;;;;2085547;28;20029;-74
2023/03/16 00:57:20;;;;;;;26.48;14.52;;;-0.40;99.90;;;;;;2092092;28;20032;-75
2023/03/16 00:58:22;;;;;;;27.98;14.50;;;-0.40;99.90;;;;;;2087884;28;20400;-74
2023/03/16 00:59:25;;;;;;;25.13;13.63;;;-0.40;99.90;;;;;;2088397;28;20534;-79
2023/03/16 01:00:27;;;;;;;23.67;13.95;;;-0.40;99.90;;;;;;2083515;28;20044;-78
2023/03/16 01:01:27;;;;;;;23.00;13.93;;;-0.40;99.90;;;;;;2084433;28;20045;-73
2023/03/16 01:02:28;;;;;;;23.83;14.20;;;-0.40;99.90;;;;;;2090654;28;20115;-76
2023/03/16 01:03:29;;;;;;;23.17;13.27;;;-0.40;99.90;;;;;;2091490;28;20234;-78
2023/03/16 01:04:29;;;;;;;25.70;13.85;;;-0.40;99.90;;;;;;2085783;28;20020;-79
2023/03/16 01:05:32;;;;;;;24.17;13.77;;;-0.40;99.90;;;;;;2083719;28;20610;-77
2023/03/16 01:06:32;;;;;;;23.77;13.77;;;-0.40;99.90;;;;;;2082253;28;20048;-77
2023/03/16 01:07:35;;;;;;;25.17;13.90;;;-0.40;99.90;;;;;;2082498;28;20028;-78
2023/03/16 01:08:36;;;;;;;24.55;13.63;;;-0.40;99.90;;;;;;2090206;28;20051;-78
2023/03/16 01:09:38;;;;;;;26.60;14.02;;;-0.40;99.90;;;;;;2080255;28;20127;-79
2023/03/16 01:10:39;;;;;;;27.40;14.60;;;-0.40;99.90;;;;;;2073944;28;20033;-77
2023/03/16 01:11:44;;;;;;;26.23;14.00;;;-0.40;99.90;;;;;;2075825;28;20037;-77
2023/03/16 01:12:44;;;;;;;25.27;13.98;;;-0.40;99.90;;;;;;2069740;28;20163;-78
2023/03/16 01:13:46;;;;;;;24.30;14.10;;;-0.40;99.90;;;;;;2077417;28;20186;-78
2023/03/16 01:14:47;;;;;;;25.38;13.32;;;-0.40;99.90;;;;;;2090379;28;20040;-77
2023/03/16 01:15:50;;;;;;;24.85;14.10;;;-0.40;99.90;;;;;;2087338;28;20111;-77
2023/03/16 01:16:50;;;;;;;22.00;12.80;;;-0.40;99.90;;;;;;2084613;28;20031;-77
2023/03/16 01:17:51;;;;;;;23.42;12.98;;;-0.40;99.90;;;;;;2081979;28;20623;-77
2023/03/16 01:18:52;;;;;;;26.35;13.85;;;-0.40;99.90;;;;;;2082520;28;20384;-78
2023/03/16 01:19:53;;;;;;;24.27;13.65;;;-0.40;99.90;;;;;;2076581;28;20041;-78
2023/03/16 01:20:54;;;;;;;20.10;12.40;;;-0.40;99.90;;;;;;2085450;28;20029;-78
2023/03/16 01:21:57;;;;;;;22.60;13.13;;;-0.40;99.90;;;;;;2088396;28;20535;-78
2023/03/16 01:22:57;;;;;;;25.48;13.85;;;-0.50;99.90;;;;;;2077079;28;20029;-78
2023/03/16 01:23:58;;;;;;;27.27;14.43;;;-0.50;99.90;;;;;;2072740;28;20120;-77
2023/03/16 01:24:59;;;;;;;26.88;14.73;;;-0.50;99.90;;;;;;2086920;28;20062;-77
2023/03/16 01:26:00;;;;;;;25.55;14.23;;;-0.50;99.90;;;;;;2090365;28;20068;-77
2023/03/16 01:27:03;;;;;;;28.73;14.73;;;-0.50;99.90;;;;;;2092152;28;20028;-77
2023/03/16 01:28:07;;;;;;;27.00;14.63;;;-0.50;99.90;;;;;;2087158;28;20052;-77
2023/03/16 01:29:07;;;;;;;27.08;14.48;;;-0.50;99.90;;;;;;2081756;28;20036;-77
2023/03/16 01:30:11;;;;;;;29.67;15.98;;;-0.50;99.90;;;;;;2065330;28;20038;-78
2023/03/16 01:31:16;;;;;;;29.88;16.00;;;-0.50;99.90;;;;;;2074447;28;20044;-78
2023/03/16 01:32:17;;;;;;;33.30;15.25;;;-0.50;99.90;;;;;;2069493;28;20092;-78
2023/03/16 01:33:17;;;;;;;28.67;14.52;;;-0.50;99.90;;;;;;2084078;28;20199;-78
2023/03/16 01:34:18;;;;;;;27.85;15.43;;;-0.50;99.90;;;;;;2085489;28;20275;-78
2023/03/16 01:35:20;;;;;;;28.55;15.48;;;-0.50;99.90;;;;;;2090204;28;20036;-78
2023/03/16 01:36:21;;;;;;;27.52;14.73;;;-0.50;99.90;;;;;;2081752;28;20037;-77
2023/03/16 01:37:32;;;;;;;26.27;14.40;;;-0.50;99.90;;;;;;2076206;28;20412;-79
2023/03/16 01:38:36;;;;;;;30.10;14.55;;;-0.50;99.90;;;;;;2079938;28;20025;-79
2023/03/16 01:39:39;;;;;;;26.15;13.80;;;-0.50;99.90;;;;;;2084420;28;20133;-78
2023/03/16 01:40:40;;;;;;;23.38;13.45;;;-0.60;99.90;;;;;;2070205;28;20032;-77
2023/03/16 01:41:43;;;;;;;24.73;13.73;;;-0.60;99.90;;;;;;2071401;28;20563;-78
2023/03/16 01:43:00;;;;;;;26.67;13.75;;;-0.60;99.90;;;;;;2075560;28;20021;-79
2023/03/16 01:44:01;;;;;;;24.23;12.98;;;-0.60;99.90;;;;;;2074440;28;20080;-78
2023/03/16 01:45:04;;;;;;;22.70;13.02;;;-0.60;99.90;;;;;;2078438;28;20021;-78
2023/03/16 01:46:16;;;;;;;24.50;12.98;;;-0.60;99.90;;;;;;2082209;28;20119;-77
2023/03/16 01:47:19;;;;;;;23.55;13.27;;;-0.60;99.90;;;;;;2079837;28;20048;-77
2023/03/16 01:48:23;;;;;;;29.35;14.55;;;-0.60;99.90;;;;;;2081295;28;20089;-77
2023/03/16 01:49:30;;;;;;;36.13;16.00;;;-0.60;99.90;;;;;;2087341;28;20025;-79
2023/03/16 01:50:31;;;;;;;32.08;15.25;;;-0.60;99.90;;;;;;2086593;28;20028;-78
2023/03/16 01:51:44;;;;;;;33.85;16.00;;;-0.60;99.90;;;;;;2077227;28;20037;-78
2023/03/16 01:52:47;;;;;;;28.08;14.13;;;-0.60;99.90;;;;;;2079022;28;20040;-79
2023/03/16 01:53:56;;;;;;;26.83;13.88;;;-0.60;99.90;;;;;;2077269;28;20075;-77
2023/03/16 01:55:07;;;;;;;25.70;13.82;;;-0.60;99.90;;;;;;2066933;28;20036;-77
2023/03/16 01:56:09;;;;;;;26.15;13.02;;;-0.60;99.90;;;;;;2063969;28;20057;-77
2023/03/16 01:57:21;;;;;;;22.52;12.57;;;-0.60;99.90;;;;;;2078453;28;20044;-77
2023/03/16 01:58:22;;;;;;;30.30;14.10;;;-0.70;99.90;;;;;;2079485;28;20063;-78
2023/03/16 01:59:28;;;;;;;40.65;15.68;;;-0.70;99.90;;;;;;2079203;28;20127;-77
2023/03/16 02:00:30;;;;;;;35.15;14.68;;;-0.70;99.90;;;;;;2077667;28;20108;-77
2023/03/16 02:01:40;;;;;;;30.42;13.52;;;-0.70;99.90;;;;;;2075739;28;20035;-78
2023/03/16 02:02:43;;;;;;;27.70;13.38;;;-0.70;99.90;;;;;;2076921;28;20060;-79
2023/03/16 02:03:47;;;;;;;27.17;13.55;;;-0.70;99.90;;;;;;2075521;28;20029;-79
2023/03/16 02:05:14;;;;;;;34.65;14.80;;;-0.70;99.90;;;;;;2078193;28;20025;-78
2023/03/16 02:06:18;;;;;;;30.75;13.90;;;-0.70;99.90;;;;;;2069579;28;20122;-77
2023/03/16 02:07:26;;;;;;;31.85;14.43;;;-0.70;99.90;;;;;;2065310;28;20068;-78
2023/03/16 02:08:30;;;;;;;35.25;15.13;;;-0.70;99.90;;;;;;2070126;28;20030;-78
2023/03/16 02:09:41;;;;;;;33.05;14.68;;;-0.80;99.90;;;;;;2062736;28;20154;-77
2023/03/16 02:10:44;;;;;;;34.05;15.00;;;-0.80;99.90;;;;;;2076225;28;20033;-78
2023/03/16 02:11:46;;;;;;;32.95;14.45;;;-0.80;99.90;;;;;;2068376;28;20164;-79
2023/03/16 02:12:48;;;;;;;35.65;14.40;;;-0.80;99.90;;;;;;2060725;28;20773;-80
2023/03/16 02:13:49;;;;;;;31.67;13.82;;;-0.80;99.90;;;;;;2077344;28;20119;-78
2023/03/16 02:14:53;;;;;;;29.48;13.75;;;-0.70;99.90;;;;;;2079601;28;20455;-78
2023/03/16 02:15:54;;;;;;;25.48;13.27;;;-0.80;99.90;;;;;;2069927;28;20034;-79
2023/03/16 02:16:58;;;;;;;23.65;12.60;;;-0.80;99.90;;;;;;2065830;28;20113;-77
2023/03/16 02:17:59;;;;;;;23.88;12.25;;;-0.80;99.90;;;;;;2078017;28;20040;-78
2023/03/16 02:19:00;;;;;;;23.98;12.27;;;-0.80;99.90;;;;;;2078344;28;20059;-78
2023/03/16 02:20:21;;;;;;;22.33;12.55;;;-0.80;99.90;;;;;;2081701;28;20582;-78
2023/03/16 02:21:45;;;;;;;23.73;12.52;;;-0.80;99.90;;;;;;2078359;28;20491;-78
2023/03/16 02:22:49;;;;;;;24.23;12.25;;;-0.80;99.90;;;;;;2065446;28;20029;-78
2023/03/16 02:23:50;;;;;;;26.90;13.15;;;-0.80;99.90;;;;;;2062826;28;20057;-79
2023/03/16 02:24:52;;;;;;;25.52;13.10;;;-0.80;99.90;;;;;;2075227;28;20204;-79
2023/03/16 02:26:03;;;;;;;24.13;13.55;;;-0.80;99.90;;;;;;2084914;28;20601;-78
2023/03/16 02:27:13;;;;;;;23.90;12.45;;;-0.90;99.90;;;;;;2079884;28;20057;-77
2023/03/16 02:28:34;;;;;;;24.35;12.98;;;-0.90;99.90;;;;;;2082442;28;20068;-78
2023/03/16 02:30:00;;;;;;;19.77;11.52;;;-0.90;99.90;;;;;;2075052;28;20094;-79
2023/03/16 02:31:05;;;;;;;23.13;11.82;;;-0.90;99.90;;;;;;2067509;28;20530;-77
2023/03/16 02:32:08;;;;;;;21.17;12.18;;;-0.90;99.90;;;;;;2072932;28;20117;-77
2023/03/16 02:33:10;;;;;;;19.10;11.63;;;-0.90;99.90;;;;;;2079819;28;20093;-77
2023/03/16 02:34:13;;;;;;;21.13;11.68;;;-0.90;99.90;;;;;;2079158;28;20030;-78
2023/03/16 02:35:14;;;;;;;23.33;12.25;;;-0.90;99.90;;;;;;2083339;28;20032;-78
2023/03/16 02:36:17;;;;;;;22.58;12.20;;;-0.90;99.90;;;;;;2070010;28;20525;-79
2023/03/16 02:37:20;;;;;;;23.05;13.27;;;-0.90;99.90;;;;;;2069730;28;20487;-78
2023/03/16 02:38:22;;;;;;;21.90;12.85;;;-0.90;99.90;;;;;;2067787;28;20033;-77
2023/03/16 02:39:25;;;;;;;23.58;12.40;;;-0.90;99.90;;;;;;2067761;28;20314;-77
2023/03/16 02:40:32;;;;;;;18.75;11.73;;;-0.90;99.90;;;;;;2065936;28;20037;-78
2023/03/16 02:41:36;;;;;;;22.42;12.43;;;-0.90;99.90;;;;;;2080037;28;20063;-79
2023/03/16 02:42:37;;;;;;;21.52;12.77;;;-0.90;99.90;;;;;;2076867;28;20041;-78
2023/03/16 02:43:41;;;;;;;22.17;12.30;;;-0.90;99.90;;;;;;2085012;28;20104;-79
2023/03/16 02:44:54;;;;;;;21.02;12.65;;;-0.90;99.90;;;;;;2084400;28;20082;-78
2023/03/16 02:46:02;;;;;;;20.05;12.25;;;-0.90;99.90;;;;;;2076298;28;20485;-79
2023/03/16 02:47:10;;;;;;;21.88;12.73;;;-0.90;99.90;;;;;;2076896;28;20040;-78
2023/03/16 02:48:32;;;;;;;22.67;12.93;;;-0.90;99.90;;;;;;2070439;28;20030;-80
2023/03/16 02:49:44;;;;;;;23.10;12.68;;;-0.90;99.90;;;;;;2077323;28;20036;-77
2023/03/16 02:50:47;;;;;;;26.90;13.68;;;-0.90;99.90;;;;;;2078291;28;20433;-76
2023/03/16 02:51:48;;;;;;;22.08;11.95;;;-0.90;99.90;;;;;;2076967;28;20095;-76
2023/03/16 02:52:48;;;;;;;24.42;13.07;;;-0.90;99.90;;;;;;2076690;28;20416;-77
2023/03/16 02:53:49;;;;;;;22.40;12.98;;;-0.90;99.90;;;;;;2083954;28;20478;-77
2023/03/16 02:54:53;;;;;;;24.50;12.93;;;-0.90;99.90;;;;;;2073861;28;20029;-76
2023/03/16 02:55:54;;;;;;;25.67;13.68;;;-0.90;99.90;;;;;;2079701;28;20332;-78
2023/03/16 02:56:54;;;;;;;28.92;15.13;;;-0.90;99.90;;;;;;2075569;28;20051;-77
2023/03/16 02:57:56;;;;;;;29.73;14.32;;;-0.90;99.90;;;;;;2076157;28;20569;-77
2023/03/16 02:58:57;;;;;;;31.92;15.00;;;-0.90;99.90;;;;;;2078125;28;20199;-79
2023/03/16 02:59:58;;;;;;;29.45;14.40;;;-0.90;99.90;;;;;;2079245;28;20564;-78
2023/03/16 03:01:00;;;;;;;27.42;14.50;;;-0.90;99.90;;;;;;2060609;28;20542;-79
2023/03/16 03:02:01;;;;;;;29.77;14.27;;;-0.90;99.90;;;;;;2061034;28;20054;-78
2023/03/16 03:03:02;;;;;;;29.50;14.70;;;-0.90;99.90;;;;;;2060344;28;20033;-77
2023/03/16 03:04:04;;;;;;;24.95;13.98;;;-0.90;99.90;;;;;;2060396;28;20026;-78
2023/03/16 03:05:06;;;;;;;24.35;14.23;;;-0.90;99.90;;;;;;2070017;28;20040;-79
2023/03/16 03:06:06;;;;;;;27.13;13.77;;;-0.90;99.90;;;;;;2068379;28;20022;-78
2023/03/16 03:07:10;;;;;;;25.35;14.07;;;-0.90;99.90;;;;;;2069920;28;20126;-77
2023/03/16 03:08:27;;;;;;;27.50;14.10;;;-0.90;99.90;;;;;;2068137;28;20186;-77
2023/03/16 03:09:27;;;;;;;26.42;14.77;;;-0.90;99.90;;;;;;2063759;28;21101;-75
2023/03/16 03:10:28;;;;;;;25.55;14.15;;;-0.90;99.90;;;;;;2076067;28;20035;-76
2023/03/16 03:11:30;;;;;;;28.20;14.43;;;-0.90;99.90;;;;;;2078024;28;20188;-76
2023/03/16 03:12:32;;;;;;;23.92;14.07;;;-0.90;99.90;;;;;;2079075;28;20025;-77
2023/03/16 03:13:34;;;;;;;27.20;14.35;;;-0.90;99.90;;;;;;2068658;28;20083;-77
2023/03/16 03:14:38;;;;;;;26.45;14.27;;;-0.90;99.90;;;;;;2060111;28;20242;-78
2023/03/16 03:15:39;;;;;;;31.15;15.68;;;-0.90;99.90;;;;;;2077211;28;20520;-78
2023/03/16 03:16:45;;;;;;;31.42;15.55;;;-0.90;99.90;;;;;;2077594;28;20316;-78
2023/03/16 03:17:48;;;;;;;32.28;16.05;;;-0.90;99.90;;;;;;2078289;28;20033;-77
2023/03/16 03:18:48;;;;;;;33.08;15.55;;;-1.00;99.90;;;;;;2088033;28;20063;-77
2023/03/16 03:19:49;;;;;;;28.92;15.35;;;-1.00;99.90;;;;;;2076336;28;20598;-77
2023/03/16 03:20:49;;;;;;;31.23;16.15;;;-1.00;99.90;;;;;;2059374;28;20675;-78
2023/03/16 03:21:50;;;;;;;29.92;15.15;;;-1.00;99.90;;;;;;2067821;28;20487;-78
2023/03/16 03:22:51;;;;;;;28.20;14.80;;;-1.00;99.90;;;;;;2076646;28;20049;-78
2023/03/16 03:23:52;;;;;;;30.90;15.82;;;-1.00;99.90;;;;;;2068323;28;20572;-79
2023/03/16 03:24:53;;;;;;;27.42;14.82;;;-1.00;99.90;;;;;;2076756;28;20203;-79
2023/03/16 03:25:58;;;;;;;30.75;15.60;;;-1.00;99.90;;;;;;2076679;28;20149;-78
2023/03/16 03:26:59;;;;;;;31.65;16.38;;;-1.00;99.90;;;;;;2068664;28;20030;-78
2023/03/16 03:28:04;;;;;;;30.77;15.90;;;-1.00;99.90;;;;;;2063080;28;20125;-79
2023/03/16 03:29:05;;;;;;;28.02;15.20;;;-1.00;99.90;;;;;;2074082;28;20032;-79
2023/03/16 03:30:09;;;;;;;26.63;15.15;;;-1.00;99.90;;;;;;2078377;28;20135;-79
2023/03/16 03:31:18;;;;;;;27.98;15.65;;;-0.90;99.90;;;;;;2083874;28;20041;-79
2023/03/16 03:32:19;;;;;;;28.50;15.43;;;-1.00;99.90;;;;;;2078918;28;20029;-79
2023/03/16 03:33:21;;;;;;;28.25;16.08;;;-1.00;99.90;;;;;;2077892;28;20029;-79
2023/03/16 03:34:22;;;;;;;30.15;16.17;;;-1.00;99.90;;;;;;2079181;28;20060;-79
2023/03/16 03:35:23;;;;;;;30.95;15.75;;;-1.00;99.90;;;;;;2061379;28;20642;-79
2023/03/16 03:36:23;;;;;;;33.10;17.30;;;-1.00;99.90;;;;;;2061848;28;20560;-79
2023/03/16 03:37:24;;;;;;;33.83;16.65;;;-1.00;99.90;;;;;;2069827;28;20026;-78
2023/03/16 03:38:25;;;;;;;34.05;17.65;;;-1.00;99.90;;;;;;2068423;28;20054;-79
2023/03/16 03:39:26;;;;;;;37.22;18.17;;;-1.00;99.90;;;;;;2079975;28;20223;-79
2023/03/16 03:40:27;;;;;;;38.28;18.45;;;-1.00;99.90;;;;;;2070791;28;20262;-78
2023/03/16 03:41:33;;;;;;;40.15;18.08;;;-1.00;99.90;;;;;;2069816;28;20068;-79
2023/03/16 03:42:36;;;;;;;36.33;18.02;;;-1.00;99.90;;;;;;2079487;28;20097;-79
2023/03/16 03:43:39;;;;;;;34.72;17.80;;;-1.00;99.90;;;;;;2079367;28;20063;-78
2023/03/16 03:44:45;;;;;;;35.33;18.02;;;-1.00;99.90;;;;;;2080996;28;20385;-79
2023/03/16 03:45:46;;;;;;;36.08;17.52;;;-1.00;99.90;;;;;;2077444;28;20051;-78
2023/03/16 03:46:48;;;;;;;34.58;16.92;;;-1.00;99.90;;;;;;2078137;28;20025;-77
2023/03/16 03:47:48;;;;;;;30.27;16.58;;;-1.00;99.90;;;;;;2077976;28;20026;-77
2023/03/16 03:48:53;;;;;;;31.45;16.50;;;-1.10;99.90;;;;;;2080293;28;20010;-77
2023/03/16 03:49:54;;;;;;;30.55;16.10;;;-1.00;99.90;;;;;;2081106;28;20440;-77
2023/03/16 03:50:55;;;;;;;28.70;16.13;;;-1.00;99.90;;;;;;2071243;28;20033;-79
2023/03/16 03:52:19;;;;;;;30.38;15.70;;;-1.00;99.90;;;;;;2070676;28;20072;-79
2023/03/16 03:53:19;;;;;;;29.90;16.42;;;-1.00;99.90;;;;;;2087620;28;20042;-79
2023/03/16 03:54:41;;;;;;;29.90;15.55;;;-1.00;99.90;;;;;;2075598;28;20545;-78
2023/03/16 03:55:48;;;;;;;31.02;15.60;;;-1.00;99.90;;;;;;2087153;28;20411;-77
2023/03/16 03:56:53;;;;;;;29.17;15.50;;;-1.00;99.90;;;;;;2072617;28;20211;-78
2023/03/16 03:57:54;;;;;;;30.25;15.85;;;-1.00;99.90;;;;;;2079295;28;20021;-77
2023/03/16 03:58:54;;;;;;;28.25;16.00;;;-1.00;99.90;;;;;;2079055;28;20056;-78
2023/03/16 04:00:10;;;;;;;29.15;15.85;;;-1.00;99.90;;;;;;2079276;28;20034;-78
2023/03/16 04:01:13;;;;;;;28.42;15.63;;;-1.00;99.90;;;;;;2076364;28;20146;-78
2023/03/16 04:02:14;;;;;;;28.05;15.20;;;-1.00;99.90;;;;;;2068966;28;20029;-78
2023/03/16 04:03:23;;;;;;;29.33;16.00;;;-1.00;99.90;;;;;;2070554;28;20034;-78
2023/03/16 04:04:23;;;;;;;27.52;16.10;;;-1.00;99.90;;;;;;2087260;28;20062;-78
2023/03/16 04:05:26;;;;;;;26.48;15.63;;;-1.00;99.90;;;;;;2088363;28;20039;-78
2023/03/16 04:06:27;;;;;;;29.00;15.80;;;-1.00;99.90;;;;;;2070218;28;20037;-77
2023/03/16 04:07:29;;;;;;;27.02;15.82;;;-1.00;99.90;;;;;;2077987;28;20106;-77
2023/03/16 04:08:35;;;;;;;30.50;15.60;;;-1.00;99.90;;;;;;2079097;28;20017;-78
2023/03/16 04:09:37;;;;;;;26.15;15.32;;;-1.00;99.90;;;;;;2067020;28;20029;-78
2023/03/16 04:10:38;;;;;;;27.35;15.68;;;-1.00;99.90;;;;;;2078012;28;20033;-78
2023/03/16 04:11:39;;;;;;;27.80;16.00;;;-1.00;99.90;;;;;;2069697;28;20037;-77
2023/03/16 04:12:39;;;;;;;27.00;15.73;;;-1.00;99.90;;;;;;2072652;28;20029;-77
2023/03/16 04:13:42;;;;;;;25.73;15.00;;;-1.00;99.90;;;;;;2076286;28;20021;-79
2023/03/16 04:14:44;;;;;;;27.23;15.35;;;-1.00;99.90;;;;;;2078175;28;20029;-80
2023/03/16 04:15:45;;;;;;;27.17;15.00;;;-1.10;99.90;;;;;;2076017;28;20033;-77
2023/03/16 04:16:56;;;;;;;25.73;14.52;;;-1.10;99.90;;;;;;2071736;28;20026;-74
2023/03/16 04:17:58;;;;;;;25.42;15.20;;;-1.00;99.90;;;;;;2080271;28;20127;-72
2023/03/16 04:19:00;;;;;;;29.10;15.13;;;-1.10;99.90;;;;;;2088258;28;20039;-72
2023/03/16 04:20:01;;;;;;;25.83;15.30;;;-1.10;99.90;;;;;;2077863;28;20114;-72
2023/03/16 04:21:02;;;;;;;25.25;14.88;;;-1.00;99.90;;;;;;2085798;28;20021;-72
2023/03/16 04:22:03;;;;;;;23.42;14.57;;;-1.10;99.90;;;;;;2077815;28;20022;-73
2023/03/16 04:23:05;;;;;;;24.38;15.30;;;-1.00;99.90;;;;;;2080573;28;20067;-73
2023/03/16 04:24:06;;;;;;;25.90;15.52;;;-1.00;99.90;;;;;;2084865;28;20025;-73
2023/03/16 04:25:11;;;;;;;25.65;15.10;;;-1.10;99.90;;;;;;2085117;28;20194;-73
2023/03/16 04:26:13;;;;;;;26.63;15.43;;;-1.00;99.90;;;;;;2086965;28;20094;-73
2023/03/16 04:27:15;;;;;;;25.17;15.10;;;-1.10;99.90;;;;;;2083144;28;20035;-73
2023/03/16 04:28:16;;;;;;;23.38;14.43;;;-1.10;99.90;;;;;;2080382;28;20115;-72
2023/03/16 04:29:18;;;;;;;24.35;14.82;;;-1.10;99.90;;;;;;2077605;28;20296;-72
2023/03/16 04:30:22;;;;;;;25.73;14.70;;;-1.00;99.90;;;;;;2077548;28;20052;-72
2023/03/16 04:31:26;;;;;;;24.55;14.05;;;-1.10;99.90;;;;;;2079256;28;20057;-72
2023/03/16 04:32:27;;;;;;;26.67;15.25;;;-1.10;99.90;;;;;;2077830;28;20029;-72
2023/03/16 04:33:28;;;;;;;29.52;17.67;;;-1.10;99.90;;;;;;2080248;28;20052;-72
2023/03/16 04:34:30;;;;;;;32.03;19.02;;;-1.10;99.90;;;;;;2087356;28;20024;-72
2023/03/16 04:35:34;;;;;;;27.27;18.08;;;-1.10;99.90;;;;;;2079350;28;20120;-74
2023/03/16 04:36:34;;;;;;;27.15;17.55;;;-1.10;99.90;;;;;;2087452;28;20051;-72
2023/03/16 04:37:36;;;;;;;29.08;18.05;;;-1.10;99.90;;;;;;2075130;28;20315;-71
2023/03/16 04:38:37;;;;;;;26.80;16.65;;;-1.10;99.90;;;;;;2079964;28;20106;-72
2023/03/16 04:39:38;;;;;;;25.48;15.93;;;-1.10;99.90;;;;;;2077758;28;20125;-72
2023/03/16 04:40:39;;;;;;;24.70;15.70;;;-1.10;99.90;;;;;;2078041;28;20034;-72
2023/03/16 04:41:46;;;;;;;22.85;15.23;;;-1.10;99.90;;;;;;2070623;28;20130;-72
2023/03/16 04:42:53;;;;;;;27.65;16.90;;;-1.20;99.90;;;;;;2079870;28;21052;-72
2023/03/16 04:43:56;;;;;;;25.50;16.23;;;-1.20;99.90;;;;;;2082737;28;20770;-72
2023/03/16 04:44:58;;;;;;;27.27;16.55;;;-1.20;99.90;;;;;;2078303;28;20119;-72
2023/03/16 04:46:02;;;;;;;26.92;16.15;;;-1.20;99.90;;;;;;2077648;28;20144;-73
2023/03/16 04:47:04;;;;;;;28.92;16.45;;;-1.20;99.90;;;;;;2084748;28;20034;-73
2023/03/16 04:48:10;;;;;;;27.77;16.35;;;-1.20;99.90;;;;;;2080569;28;20025;-72
2023/03/16 04:49:12;;;;;;;28.77;15.70;;;-1.20;99.90;;;;;;2076204;28;20044;-72
2023/03/16 04:50:16;;;;;;;26.30;16.10;;;-1.20;99.90;;;;;;2079452;28;20064;-72
2023/03/16 04:51:25;;;;;;;27.05;15.48;;;-1.20;99.90;;;;;;2077742;28;20127;-72
2023/03/16 04:52:37;;;;;;;27.20;15.23;;;-1.20;99.90;;;;;;2078732;28;20021;-72
2023/03/16 04:53:38;;;;;;;24.80;15.18;;;-1.20;99.90;;;;;;2078162;28;20036;-71
2023/03/16 04:54:48;;;;;;;25.55;15.18;;;-1.20;99.90;;;;;;2080015;28;20022;-72
2023/03/16 04:55:50;;;;;;;26.35;15.38;;;-1.30;99.90;;;;;;2078876;28;20029;-71
2023/03/16 04:56:51;;;;;;;24.70;14.73;;;-1.30;99.90;;;;;;2078976;28;20028;-72
2023/03/16 04:58:09;;;;;;;28.23;15.23;;;-1.20;99.90;;;;;;2081291;28;20055;-72
2023/03/16 04:59:12;;;;;;;27.80;15.25;;;-1.30;99.90;;;;;;2082557;28;20271;-72
2023/03/16 05:00:20;;;;;;;28.08;15.52;;;-1.30;99.90;;;;;;2079104;28;20576;-73
2023/03/16 05:01:33;;;;;;;27.70;14.95;;;-1.30;99.90;;;;;;2078133;28;20028;-72
2023/03/16 05:02:36;;;;;;;26.15;15.07;;;-1.30;99.90;;;;;;2078403;28;20059;-72
2023/03/16 05:03:39;;;;;;;24.15;14.93;;;-1.30;99.90;;;;;;2078726;28;20370;-72
2023/03/16 05:04:39;;;;;;;23.77;15.10;;;-1.30;99.90;;;;;;2088804;28;20035;-72
2023/03/16 05:05:46;;;;;;;24.73;15.43;;;-1.30;99.90;;;;;;2077789;28;20432;-72
2023/03/16 05:06:48;;;;;;;25.55;15.27;;;-1.30;99.90;;;;;;2085362;28;20132;-73
2023/03/16 05:07:50;;;;;;;25.92;15.20;;;-1.30;99.90;;;;;;2082220;28;20440;-72
2023/03/16 05:08:52;;;;;;;24.88;15.35;;;-1.30;99.90;;;;;;2079652;28;20277;-72
2023/03/16 05:09:53;;;;;;;23.45;15.00;;;-1.30;99.90;;;;;;2085534;28;20094;-73
2023/03/16 05:10:58;;;;;;;24.58;15.43;;;-1.30;99.90;;;;;;2086426;28;20021;-73
2023/03/16 05:12:00;;;;;;;26.40;15.27;;;-1.30;99.90;;;;;;2075123;28;20051;-72
2023/03/16 05:13:01;;;;;;;26.55;15.73;;;-1.30;99.90;;;;;;2077290;28;20035;-72
2023/03/16 05:14:02;;;;;;;29.58;16.08;;;-1.30;99.90;;;;;;2078114;28;20258;-73
2023/03/16 05:15:06;;;;;;;27.42;15.50;;;-1.30;99.90;;;;;;2078924;28;20037;-72
2023/03/16 05:16:13;;;;;;;25.65;14.88;;;-1.30;99.90;;;;;;2071418;28;20033;-73
2023/03/16 05:17:15;;;;;;;28.13;15.90;;;-1.30;99.90;;;;;;2070806;28;20492;-72
2023/03/16 05:18:17;;;;;;;26.77;15.75;;;-1.30;99.90;;;;;;2079869;28;20075;-71
2023/03/16 05:19:17;;;;;;;27.52;15.55;;;-1.30;99.90;;;;;;2077348;28;20959;-74
2023/03/16 05:20:20;;;;;;;28.73;16.23;;;-1.30;99.90;;;;;;2077253;28;20540;-71
2023/03/16 05:21:25;;;;;;;25.70;15.77;;;-1.30;99.90;;;;;;2086221;28;20037;-71
2023/03/16 05:22:33;;;;;;;26.27;15.68;;;-1.30;99.90;;;;;;2085362;28;20541;-71